sensor_id;sensor_type;location;lat;lon;timestamp;pressure;altitude;pressure_sealevel;temperature;humidity
53858;BME280;39763;51.188;6.690;2022-08-03T00:01:19;101201.94;;;25.59;49.94
53858;BME280;39763;51.188;6.690;2022-08-03T00:02:50;101199.38;;;25.58;49.63
53858;BME280;39763;51.188;6.690;2022-08-03T00:04:22;101191.59;;;25.55;49.63
53858;BME280;39763;51.188;6.690;2022-08-03T00:06:04;101199.22;;;25.50;49.51
53858;BME280;39763;51.188;6.690;2022-08-03T00:07:36;101203.88;;;25.48;49.67
53858;BME280;39763;51.188;6.690;2022-08-03T00:09:09;101198.91;;;25.43;49.54
53858;BME280;39763;51.188;6.690;2022-08-03T00:10:41;101198.31;;;25.40;49.93
53858;BME280;39763;51.188;6.690;2022-08-03T00:12:13;101191.53;;;25.36;49.91
53858;BME280;39763;51.188;6.690;2022-08-03T00:13:45;101196.31;;;25.32;49.92
53858;BME280;39763;51.188;6.690;2022-08-03T00:15:17;101192.19;;;25.28;50.02
53858;BME280;39763;51.188;6.690;2022-08-03T00:16:53;101195.13;;;25.25;49.98
53858;BME280;39763;51.188;6.690;2022-08-03T00:18:25;101191.59;;;25.24;50.05
53858;BME280;39763;51.188;6.690;2022-08-03T00:19:57;101187.91;;;25.25;50.21
53858;BME280;39763;51.188;6.690;2022-08-03T00:21:29;101187.19;;;25.23;49.97
53858;BME280;39763;51.188;6.690;2022-08-03T00:23:00;101186.50;;;25.21;50.27
53858;BME280;39763;51.188;6.690;2022-08-03T00:24:35;101186.03;;;25.16;50.21
53858;BME280;39763;51.188;6.690;2022-08-03T00:26:07;101190.81;;;25.13;50.46
53858;BME280;39763;51.188;6.690;2022-08-03T00:27:38;101191.09;;;25.10;50.32
53858;BME280;39763;51.188;6.690;2022-08-03T00:29:10;101189.69;;;25.06;50.59
53858;BME280;39763;51.188;6.690;2022-08-03T00:30:42;101188.94;;;25.04;50.65
53858;BME280;39763;51.188;6.690;2022-08-03T00:32:16;101190.91;;;25.02;50.80
53858;BME280;39763;51.188;6.690;2022-08-03T00:33:49;101184.94;;;24.98;50.86
53858;BME280;39763;51.188;6.690;2022-08-03T00:35:33;101185.22;;;24.95;50.62
53858;BME280;39763;51.188;6.690;2022-08-03T00:37:21;101184.75;;;24.90;51.11
53858;BME280;39763;51.188;6.690;2022-08-03T00:39:11;101177.06;;;24.85;50.91
53858;BME280;39763;51.188;6.690;2022-08-03T00:40:43;101186.09;;;24.84;51.32
53858;BME280;39763;51.188;6.690;2022-08-03T00:42:15;101181.97;;;24.80;51.43
53858;BME280;39763;51.188;6.690;2022-08-03T00:43:47;101174.03;;;24.79;51.57
53858;BME280;39763;51.188;6.690;2022-08-03T00:45:22;101174.31;;;24.76;51.31
53858;BME280;39763;51.188;6.690;2022-08-03T00:46:54;101174.44;;;24.74;51.64
53858;BME280;39763;51.188;6.690;2022-08-03T00:48:27;101171.16;;;24.71;51.33
53858;BME280;39763;51.188;6.690;2022-08-03T00:50:05;101171.41;;;24.68;51.57
53858;BME280;39763;51.188;6.690;2022-08-03T00:51:37;101176.94;;;24.66;51.88
53858;BME280;39763;51.188;6.690;2022-08-03T00:53:10;101175.22;;;24.65;51.56
53858;BME280;39763;51.188;6.690;2022-08-03T00:54:43;101172.81;;;24.62;51.63
53858;BME280;39763;51.188;6.690;2022-08-03T00:56:16;101175.75;;;24.59;51.88
53858;BME280;39763;51.188;6.690;2022-08-03T00:57:49;101169.66;;;24.57;51.78
53858;BME280;39763;51.188;6.690;2022-08-03T00:59:21;101168.94;;;24.55;51.98
53858;BME280;39763;51.188;6.690;2022-08-03T01:00:53;101170.03;;;24.52;52.45
53858;BME280;39763;51.188;6.690;2022-08-03T01:02:25;101174.69;;;24.50;52.21
53858;BME280;39763;51.188;6.690;2022-08-03T01:03:59;101168.47;;;24.50;52.20
53858;BME280;39763;51.188;6.690;2022-08-03T01:05:37;101162.41;;;24.48;52.56
53858;BME280;39763;51.188;6.690;2022-08-03T01:07:14;101166.91;;;24.47;52.54
53858;BME280;39763;51.188;6.690;2022-08-03T01:08:53;101170.69;;;24.45;52.63
53858;BME280;39763;51.188;6.690;2022-08-03T01:10:36;101160.94;;;24.44;52.69
53858;BME280;39763;51.188;6.690;2022-08-03T01:12:13;101162.91;;;24.42;52.60
53858;BME280;39763;51.188;6.690;2022-08-03T01:13:53;101163.03;;;24.40;52.22
53858;BME280;39763;51.188;6.690;2022-08-03T01:15:54;101166.69;;;24.39;52.23
53858;BME280;39763;51.188;6.690;2022-08-03T01:17:33;101163.88;;;24.41;52.30
53858;BME280;39763;51.188;6.690;2022-08-03T01:19:26;101164.00;;;24.39;52.89
53858;BME280;39763;51.188;6.690;2022-08-03T01:21:06;101163.41;;;24.36;52.57
53858;BME280;39763;51.188;6.690;2022-08-03T01:22:55;101160.03;;;24.34;52.76
53858;BME280;39763;51.188;6.690;2022-08-03T01:24:36;101162.72;;;24.34;52.99
53858;BME280;39763;51.188;6.690;2022-08-03T01:26:31;101158.03;;;24.36;53.04
53858;BME280;39763;51.188;6.690;2022-08-03T01:28:21;101161.84;;;24.33;52.83
53858;BME280;39763;51.188;6.690;2022-08-03T01:30:02;101163.53;;;24.34;52.84
53858;BME280;39763;51.188;6.690;2022-08-03T01:31:38;101160.72;;;24.36;53.03
53858;BME280;39763;51.188;6.690;2022-08-03T01:33:35;101167.78;;;24.37;52.70
53858;BME280;39763;51.188;6.690;2022-08-03T01:35:10;101165.09;;;24.37;52.70
53858;BME280;39763;51.188;6.690;2022-08-03T01:36:48;101170.59;;;24.35;53.02
53858;BME280;39763;51.188;6.690;2022-08-03T01:38:23;101166.22;;;24.34;52.67
53858;BME280;39763;51.188;6.690;2022-08-03T01:39:57;101167.91;;;24.35;52.85
53858;BME280;39763;51.188;6.690;2022-08-03T01:41:32;101165.63;;;24.31;53.14
53858;BME280;39763;51.188;6.690;2022-08-03T01:43:05;101163.94;;;24.30;53.05
53858;BME280;39763;51.188;6.690;2022-08-03T01:44:40;101167.59;;;24.29;53.03
53858;BME280;39763;51.188;6.690;2022-08-03T01:46:15;101166.75;;;24.28;52.87
53858;BME280;39763;51.188;6.690;2022-08-03T01:47:48;101171.25;;;24.28;52.80
53858;BME280;39763;51.188;6.690;2022-08-03T01:49:21;101163.59;;;24.23;52.96
53858;BME280;39763;51.188;6.690;2022-08-03T01:50:54;101164.94;;;24.17;53.41
53858;BME280;39763;51.188;6.690;2022-08-03T01:52:27;101158.72;;;24.17;53.46
53858;BME280;39763;51.188;6.690;2022-08-03T01:54:02;101153.22;;;24.18;53.13
53858;BME280;39763;51.188;6.690;2022-08-03T01:55:36;101155.91;;;24.18;53.00
53858;BME280;39763;51.188;6.690;2022-08-03T01:57:09;101151.34;;;24.19;53.50
53858;BME280;39763;51.188;6.690;2022-08-03T01:58:43;101151.50;;;24.17;53.26
53858;BME280;39763;51.188;6.690;2022-08-03T02:00:16;101161.41;;;24.17;53.28
53858;BME280;39763;51.188;6.690;2022-08-03T02:01:52;101158.72;;;24.17;53.36
53858;BME280;39763;51.188;6.690;2022-08-03T02:03:45;101159.56;;;24.17;53.36
53858;BME280;39763;51.188;6.690;2022-08-03T02:05:31;101157.56;;;24.19;53.26
53858;BME280;39763;51.188;6.690;2022-08-03T02:07:05;101160.41;;;24.18;53.49
53858;BME280;39763;51.188;6.690;2022-08-03T02:08:38;101155.06;;;24.18;53.28
53858;BME280;39763;51.188;6.690;2022-08-03T02:10:12;101158.44;;;24.20;53.02
53858;BME280;39763;51.188;6.690;2022-08-03T02:11:54;101161.00;;;24.21;53.14
53858;BME280;39763;51.188;6.690;2022-08-03T02:13:27;101153.22;;;24.18;53.48
53858;BME280;39763;51.188;6.690;2022-08-03T02:15:01;101158.59;;;24.18;53.56
53858;BME280;39763;51.188;6.690;2022-08-03T02:16:34;101163.09;;;24.18;53.24
53858;BME280;39763;51.188;6.690;2022-08-03T02:18:09;101159.56;;;24.17;53.41
53858;BME280;39763;51.188;6.690;2022-08-03T02:19:42;101160.91;;;24.12;53.57
53858;BME280;39763;51.188;6.690;2022-08-03T02:21:15;101162.13;;;24.08;53.89
53858;BME280;39763;51.188;6.690;2022-08-03T02:23:07;101161.69;;;24.03;53.99
53858;BME280;39763;51.188;6.690;2022-08-03T02:24:39;101161.69;;;24.03;53.87
53858;BME280;39763;51.188;6.690;2022-08-03T02:26:14;101159.69;;;24.05;54.06
53858;BME280;39763;51.188;6.690;2022-08-03T02:27:50;101160.84;;;24.02;54.10
53858;BME280;39763;51.188;6.690;2022-08-03T02:29:25;101167.19;;;24.01;54.09
53858;BME280;39763;51.188;6.690;2022-08-03T02:31:13;101162.06;;;23.98;54.02
53858;BME280;39763;51.188;6.690;2022-08-03T02:32:50;101161.56;;;23.93;54.01
53858;BME280;39763;51.188;6.690;2022-08-03T02:34:26;101161.81;;;23.90;54.32
53858;BME280;39763;51.188;6.690;2022-08-03T02:36:00;101167.19;;;23.90;54.15
53858;BME280;39763;51.188;6.690;2022-08-03T02:37:36;101156.44;;;23.90;54.51
53858;BME280;39763;51.188;6.690;2022-08-03T02:39:18;101152.78;;;23.91;54.08
53858;BME280;39763;51.188;6.690;2022-08-03T02:40:54;101156.22;;;23.93;54.02
53858;BME280;39763;51.188;6.690;2022-08-03T02:42:27;101147.44;;;23.91;54.10
53858;BME280;39763;51.188;6.690;2022-08-03T02:44:03;101143.91;;;23.90;54.22
53858;BME280;39763;51.188;6.690;2022-08-03T02:45:41;101148.41;;;23.90;54.18
53858;BME280;39763;51.188;6.690;2022-08-03T02:47:18;101145.16;;;23.86;54.26
53858;BME280;39763;51.188;6.690;2022-08-03T02:48:52;101141.00;;;23.82;54.03
53858;BME280;39763;51.188;6.690;2022-08-03T02:50:28;101138.81;;;23.76;54.53
53858;BME280;39763;51.188;6.690;2022-08-03T02:52:02;101146.41;;;23.71;54.35
53858;BME280;39763;51.188;6.690;2022-08-03T02:53:35;101152.97;;;23.67;54.48
53858;BME280;39763;51.188;6.690;2022-08-03T02:55:09;101149.81;;;23.62;54.75
53858;BME280;39763;51.188;6.690;2022-08-03T02:56:43;101151.91;;;23.59;55.09
53858;BME280;39763;51.188;6.690;2022-08-03T02:58:17;101148.63;;;23.55;55.08
53858;BME280;39763;51.188;6.690;2022-08-03T02:59:52;101148.00;;;23.51;55.41
53858;BME280;39763;51.188;6.690;2022-08-03T03:01:26;101145.31;;;23.51;55.35
53858;BME280;39763;51.188;6.690;2022-08-03T03:02:59;101148.88;;;23.52;55.37
53858;BME280;39763;51.188;6.690;2022-08-03T03:04:32;101151.41;;;23.53;55.37
53858;BME280;39763;51.188;6.690;2022-08-03T03:06:09;101150.56;;;23.53;55.68
53858;BME280;39763;51.188;6.690;2022-08-03T03:07:41;101150.69;;;23.51;55.68
53858;BME280;39763;51.188;6.690;2022-08-03T03:09:23;101154.31;;;23.50;55.74
53858;BME280;39763;51.188;6.690;2022-08-03T03:11:13;101153.47;;;23.50;55.65
53858;BME280;39763;51.188;6.690;2022-08-03T03:12:45;101153.56;;;23.48;55.84
53858;BME280;39763;51.188;6.690;2022-08-03T03:14:18;101155.53;;;23.46;55.91
53858;BME280;39763;51.188;6.690;2022-08-03T03:16:05;101154.22;;;23.41;55.89
53858;BME280;39763;51.188;6.690;2022-08-03T03:17:37;101157.00;;;23.39;56.22
53858;BME280;39763;51.188;6.690;2022-08-03T03:19:11;101159.19;;;23.34;56.12
53858;BME280;39763;51.188;6.690;2022-08-03T03:20:44;101155.53;;;23.35;56.38
53858;BME280;39763;51.188;6.690;2022-08-03T03:22:18;101155.53;;;23.35;56.25
53858;BME280;39763;51.188;6.690;2022-08-03T03:23:51;101153.81;;;23.34;56.53
53858;BME280;39763;51.188;6.690;2022-08-03T03:25:23;101157.38;;;23.35;56.35
53858;BME280;39763;51.188;6.690;2022-08-03T03:26:55;101160.16;;;23.33;56.41
53858;BME280;39763;51.188;6.690;2022-08-03T03:28:29;101155.53;;;23.35;56.24
53858;BME280;39763;51.188;6.690;2022-08-03T03:30:01;101157.25;;;23.36;56.47
53858;BME280;39763;51.188;6.690;2022-08-03T03:31:34;101154.69;;;23.35;56.30
53858;BME280;39763;51.188;6.690;2022-08-03T03:33:05;101159.31;;;23.33;56.62
53858;BME280;39763;51.188;6.690;2022-08-03T03:34:38;101159.31;;;23.33;56.60
53858;BME280;39763;51.188;6.690;2022-08-03T03:36:10;101161.41;;;23.29;56.59
53858;BME280;39763;51.188;6.690;2022-08-03T03:37:43;101159.81;;;23.27;56.80
53858;BME280;39763;51.188;6.690;2022-08-03T03:39:15;101153.72;;;23.25;56.70
53858;BME280;39763;51.188;6.690;2022-08-03T03:40:47;101156.28;;;23.26;56.71
53858;BME280;39763;51.188;6.690;2022-08-03T03:42:19;101161.63;;;23.26;56.68
53858;BME280;39763;51.188;6.690;2022-08-03T03:43:51;101153.59;;;23.26;56.67
53858;BME280;39763;51.188;6.690;2022-08-03T03:45:23;101153.72;;;23.25;56.44
53858;BME280;39763;51.188;6.690;2022-08-03T03:46:55;101160.16;;;23.22;56.58
53858;BME280;39763;51.188;6.690;2022-08-03T03:48:28;101158.47;;;23.21;56.77
53858;BME280;39763;51.188;6.690;2022-08-03T03:50:04;101161.25;;;23.19;56.67
53858;BME280;39763;51.188;6.690;2022-08-03T03:51:36;101171.00;;;23.20;56.63
53858;BME280;39763;51.188;6.690;2022-08-03T03:53:10;101163.09;;;23.19;56.89
53858;BME280;39763;51.188;6.690;2022-08-03T03:54:43;101159.56;;;23.18;56.66
53858;BME280;39763;51.188;6.690;2022-08-03T03:56:16;101160.53;;;23.17;56.80
53858;BME280;39763;51.188;6.690;2022-08-03T03:57:48;101158.81;;;23.16;56.92
53858;BME280;39763;51.188;6.690;2022-08-03T03:59:20;101159.78;;;23.15;56.80
53858;BME280;39763;51.188;6.690;2022-08-03T04:00:51;101157.25;;;23.14;56.96
53858;BME280;39763;51.188;6.690;2022-08-03T04:02:24;101164.31;;;23.15;56.77
53858;BME280;39763;51.188;6.690;2022-08-03T04:03:56;101162.63;;;23.14;56.76
53858;BME280;39763;51.188;6.690;2022-08-03T04:05:28;101167.00;;;23.15;56.73
53858;BME280;39763;51.188;6.690;2022-08-03T04:07:18;101169.91;;;23.12;56.93
53858;BME280;39763;51.188;6.690;2022-08-03T04:09:10;101166.38;;;23.11;56.98
53858;BME280;39763;51.188;6.690;2022-08-03T04:11:07;101168.31;;;23.09;57.12
53858;BME280;39763;51.188;6.690;2022-08-03T04:12:42;101164.19;;;23.05;57.00
53858;BME280;39763;51.188;6.690;2022-08-03T04:14:24;101151.97;;;23.01;57.25
53858;BME280;39763;51.188;6.690;2022-08-03T04:15:58;101152.25;;;22.98;57.10
53858;BME280;39763;51.188;6.690;2022-08-03T04:17:31;101159.56;;;22.96;57.21
53858;BME280;39763;51.188;6.690;2022-08-03T04:19:06;101166.84;;;22.94;57.46
53858;BME280;39763;51.188;6.690;2022-08-03T04:20:42;101169.88;;;22.90;57.66
53858;BME280;39763;51.188;6.690;2022-08-03T04:22:20;101158.41;;;22.88;57.63
53858;BME280;39763;51.188;6.690;2022-08-03T04:23:56;101162.22;;;22.85;57.58
53858;BME280;39763;51.188;6.690;2022-08-03T04:25:33;101164.16;;;22.83;57.77
53858;BME280;39763;51.188;6.690;2022-08-03T04:27:10;101171.44;;;22.81;57.82
53858;BME280;39763;51.188;6.690;2022-08-03T04:28:44;101166.31;;;22.78;57.93
53858;BME280;39763;51.188;6.690;2022-08-03T04:30:17;101172.53;;;22.78;57.78
53858;BME280;39763;51.188;6.690;2022-08-03T04:31:50;101171.56;;;22.79;57.77
53858;BME280;39763;51.188;6.690;2022-08-03T04:33:25;101175.09;;;22.80;57.96
53858;BME280;39763;51.188;6.690;2022-08-03T04:35:00;101174.25;;;22.79;57.89
53858;BME280;39763;51.188;6.690;2022-08-03T04:36:36;101168.78;;;22.81;58.10
53858;BME280;39763;51.188;6.690;2022-08-03T04:38:12;101174.97;;;22.81;57.79
53858;BME280;39763;51.188;6.690;2022-08-03T04:39:47;101169.50;;;22.83;57.64
53858;BME280;39763;51.188;6.690;2022-08-03T04:41:24;101172.19;;;22.83;57.95
53858;BME280;39763;51.188;6.690;2022-08-03T04:42:57;101171.34;;;22.82;57.84
53858;BME280;39763;51.188;6.690;2022-08-03T04:44:30;101175.72;;;22.83;57.78
53858;BME280;39763;51.188;6.690;2022-08-03T04:46:07;101181.94;;;22.84;57.85
53858;BME280;39763;51.188;6.690;2022-08-03T04:47:40;101166.72;;;22.84;57.97
53858;BME280;39763;51.188;6.690;2022-08-03T04:49:12;101164.91;;;22.85;57.84
53858;BME280;39763;51.188;6.690;2022-08-03T04:50:45;101173.75;;;22.85;57.92
53858;BME280;39763;51.188;6.690;2022-08-03T04:52:18;101173.75;;;22.85;57.91
53858;BME280;39763;51.188;6.690;2022-08-03T04:53:49;101175.47;;;22.86;57.92
53858;BME280;39763;51.188;6.690;2022-08-03T04:55:25;101173.75;;;22.85;57.93
53858;BME280;39763;51.188;6.690;2022-08-03T04:56:58;101183.66;;;22.85;57.95
53858;BME280;39763;51.188;6.690;2022-08-03T04:58:30;101179.09;;;22.85;58.09
53858;BME280;39763;51.188;6.690;2022-08-03T05:00:03;101173.75;;;22.85;57.98
53858;BME280;39763;51.188;6.690;2022-08-03T05:01:36;101177.28;;;22.86;57.96
53858;BME280;39763;51.188;6.690;2022-08-03T05:03:08;101177.28;;;22.86;58.02
53858;BME280;39763;51.188;6.690;2022-08-03T05:04:55;101176.19;;;22.89;58.05
53858;BME280;39763;51.188;6.690;2022-08-03T05:06:26;101184.00;;;22.92;58.08
53858;BME280;39763;51.188;6.690;2022-08-03T05:07:58;101185.72;;;22.93;57.95
53858;BME280;39763;51.188;6.690;2022-08-03T05:09:33;101183.78;;;22.95;58.11
53858;BME280;39763;51.188;6.690;2022-08-03T05:11:23;101188.16;;;22.96;57.80
53858;BME280;39763;51.188;6.690;2022-08-03T05:12:56;101184.50;;;22.97;57.81
53858;BME280;39763;51.188;6.690;2022-08-03T05:14:28;101183.53;;;22.98;57.91
53858;BME280;39763;51.188;6.690;2022-08-03T05:16:00;101190.59;;;22.99;58.07
53858;BME280;39763;51.188;6.690;2022-08-03T05:17:32;101186.09;;;22.99;58.09
53858;BME280;39763;51.188;6.690;2022-08-03T05:19:04;101189.50;;;23.01;58.08
53858;BME280;39763;51.188;6.690;2022-08-03T05:20:37;101192.06;;;23.03;58.11
53858;BME280;39763;51.188;6.690;2022-08-03T05:22:09;101186.59;;;23.04;57.96
53858;BME280;39763;51.188;6.690;2022-08-03T05:23:41;101189.16;;;23.06;57.79
53858;BME280;39763;51.188;6.690;2022-08-03T05:25:12;101189.16;;;23.06;57.76
53858;BME280;39763;51.188;6.690;2022-08-03T05:26:51;101193.66;;;23.05;57.85
53858;BME280;39763;51.188;6.690;2022-08-03T05:28:24;101188.16;;;23.07;58.05
53858;BME280;39763;51.188;6.690;2022-08-03T05:29:56;101189.88;;;23.08;58.08
53858;BME280;39763;51.188;6.690;2022-08-03T05:31:47;101191.34;;;23.12;57.99
53858;BME280;39763;51.188;6.690;2022-08-03T05:33:19;101190.28;;;23.14;57.71
53858;BME280;39763;51.188;6.690;2022-08-03T05:34:51;101181.22;;;23.15;57.78
53858;BME280;39763;51.188;6.690;2022-08-03T05:36:23;101183.09;;;23.15;57.70
53858;BME280;39763;51.188;6.690;2022-08-03T05:37:54;101189.16;;;23.17;58.07
53858;BME280;39763;51.188;6.690;2022-08-03T05:39:26;101191.59;;;23.20;57.87
53858;BME280;39763;51.188;6.690;2022-08-03T05:40:58;101186.22;;;23.20;57.66
53858;BME280;39763;51.188;6.690;2022-08-03T05:42:50;101179.06;;;23.20;57.77
53858;BME280;39763;51.188;6.690;2022-08-03T05:44:23;101178.94;;;23.22;57.80
53858;BME280;39763;51.188;6.690;2022-08-03T05:45:56;101185.16;;;23.23;57.90
53858;BME280;39763;51.188;6.690;2022-08-03T05:47:44;101189.53;;;23.24;57.62
53858;BME280;39763;51.188;6.690;2022-08-03T05:49:16;101187.59;;;23.26;57.82
53858;BME280;39763;51.188;6.690;2022-08-03T05:50:47;101183.81;;;23.28;57.75
53858;BME280;39763;51.188;6.690;2022-08-03T05:52:19;101182.56;;;23.32;57.57
53858;BME280;39763;51.188;6.690;2022-08-03T05:53:51;101182.22;;;23.37;57.73
53858;BME280;39763;51.188;6.690;2022-08-03T05:55:24;101178.56;;;23.38;57.29
53858;BME280;39763;51.188;6.690;2022-08-03T05:56:55;101174.81;;;23.40;57.44
53858;BME280;39763;51.188;6.690;2022-08-03T05:58:27;101187.00;;;23.44;57.09
53858;BME280;39763;51.188;6.690;2022-08-03T06:00:04;101177.69;;;23.48;57.02
53858;BME280;39763;51.188;6.690;2022-08-03T06:01:41;101179.09;;;23.54;57.01
53858;BME280;39763;51.188;6.690;2022-08-03T06:03:13;101180.41;;;23.60;56.93
53858;BME280;39763;51.188;6.690;2022-08-03T06:04:45;101181.00;;;23.63;56.95
53858;BME280;39763;51.188;6.690;2022-08-03T06:06:17;101180.78;;;23.66;56.97
53858;BME280;39763;51.188;6.690;2022-08-03T06:07:49;101186.63;;;23.71;56.87
53858;BME280;39763;51.188;6.690;2022-08-03T06:09:21;101176.47;;;23.75;56.73
53858;BME280;39763;51.188;6.690;2022-08-03T06:11:02;101181.34;;;23.81;56.25
53858;BME280;39763;51.188;6.690;2022-08-03T06:12:34;101191.84;;;23.84;56.49
53858;BME280;39763;51.188;6.690;2022-08-03T06:14:06;101185.38;;;23.86;56.60
53858;BME280;39763;51.188;6.690;2022-08-03T06:15:40;101192.06;;;23.92;56.47
53858;BME280;39763;51.188;6.690;2022-08-03T06:17:12;101187.31;;;23.96;56.43
53858;BME280;39763;51.188;6.690;2022-08-03T06:18:45;101190.59;;;23.99;56.60
53858;BME280;39763;51.188;6.690;2022-08-03T06:20:18;101192.06;;;24.03;56.06
53858;BME280;39763;51.188;6.690;2022-08-03T06:21:50;101190.56;;;24.10;56.21
53858;BME280;39763;51.188;6.690;2022-08-03T06:23:22;101179.44;;;24.15;55.89
53858;BME280;39763;51.188;6.690;2022-08-03T06:25:13;101185.91;;;24.23;56.04
53858;BME280;39763;51.188;6.690;2022-08-03T06:26:45;101191.75;;;24.29;55.69
53858;BME280;39763;51.188;6.690;2022-08-03T06:28:17;101185.72;;;24.36;55.28
53858;BME280;39763;51.188;6.690;2022-08-03T06:30:10;101195.38;;;24.39;55.53
53858;BME280;39763;51.188;6.690;2022-08-03T06:31:44;101199.50;;;24.43;55.11
53858;BME280;39763;51.188;6.690;2022-08-03T06:33:16;101194.63;;;24.48;55.07
53858;BME280;39763;51.188;6.690;2022-08-03T06:34:47;101193.09;;;24.55;54.87
53858;BME280;39763;51.188;6.690;2022-08-03T06:36:19;101197.25;;;24.59;55.09
53858;BME280;39763;51.188;6.690;2022-08-03T06:37:51;101190.63;;;24.63;54.97
53858;BME280;39763;51.188;6.690;2022-08-03T06:39:23;101198.41;;;24.66;55.07
53858;BME280;39763;51.188;6.690;2022-08-03T06:40:55;101192.78;;;24.69;54.70
53858;BME280;39763;51.188;6.690;2022-08-03T06:42:27;101200.78;;;24.80;54.54
53858;BME280;39763;51.188;6.690;2022-08-03T06:43:59;101194.63;;;24.89;54.47
53858;BME280;39763;51.188;6.690;2022-08-03T06:45:34;101197.28;;;25.01;54.25
53858;BME280;39763;51.188;6.690;2022-08-03T06:47:08;101195.63;;;25.09;53.75
53858;BME280;39763;51.188;6.690;2022-08-03T06:48:40;101196.81;;;25.16;53.93
53858;BME280;39763;51.188;6.690;2022-08-03T06:50:11;101199.78;;;25.23;53.42
53858;BME280;39763;51.188;6.690;2022-08-03T06:51:48;101194.03;;;25.27;53.27
53858;BME280;39763;51.188;6.690;2022-08-03T06:53:37;101197.31;;;25.31;53.30
53858;BME280;39763;51.188;6.690;2022-08-03T06:55:09;101199.84;;;25.33;52.89
53858;BME280;39763;51.188;6.690;2022-08-03T06:56:40;101197.59;;;25.38;53.15
53858;BME280;39763;51.188;6.690;2022-08-03T06:58:12;101196.94;;;25.45;52.70
53858;BME280;39763;51.188;6.690;2022-08-03T06:59:44;101201.50;;;25.54;52.70
53858;BME280;39763;51.188;6.690;2022-08-03T07:01:36;101209.66;;;25.64;52.45
53858;BME280;39763;51.188;6.690;2022-08-03T07:03:09;101203.31;;;25.75;52.13
53858;BME280;39763;51.188;6.690;2022-08-03T07:04:40;101199.09;;;25.82;52.18
53858;BME280;39763;51.188;6.690;2022-08-03T07:06:12;101209.88;;;25.91;51.80
53858;BME280;39763;51.188;6.690;2022-08-03T07:07:44;101197.41;;;26.00;51.57
53858;BME280;39763;51.188;6.690;2022-08-03T07:09:16;101202.25;;;26.06;51.38
53858;BME280;39763;51.188;6.690;2022-08-03T07:10:48;101197.31;;;26.11;51.15
53858;BME280;39763;51.188;6.690;2022-08-03T07:12:20;101205.25;;;26.22;51.24
53858;BME280;39763;51.188;6.690;2022-08-03T07:13:51;101204.69;;;26.28;50.69
53858;BME280;39763;51.188;6.690;2022-08-03T07:15:23;101201.47;;;26.34;50.43
53858;BME280;39763;51.188;6.690;2022-08-03T07:17:15;101214.19;;;26.42;50.25
53858;BME280;39763;51.188;6.690;2022-08-03T07:18:48;101209.25;;;26.47;50.14
53858;BME280;39763;51.188;6.690;2022-08-03T07:20:20;101212.09;;;26.55;49.93
53858;BME280;39763;51.188;6.690;2022-08-03T07:21:52;101209.69;;;26.62;49.79
53858;BME280;39763;51.188;6.690;2022-08-03T07:23:24;101206.97;;;26.72;49.66
53858;BME280;39763;51.188;6.690;2022-08-03T07:24:56;101214.78;;;26.84;49.29
53858;BME280;39763;51.188;6.690;2022-08-03T07:26:27;101217.63;;;26.83;49.15
53858;BME280;39763;51.188;6.690;2022-08-03T07:27:59;101218.88;;;26.79;49.32
53858;BME280;39763;51.188;6.690;2022-08-03T07:29:31;101216.47;;;26.76;49.31
53858;BME280;39763;51.188;6.690;2022-08-03T07:31:05;101212.06;;;26.75;49.51
53858;BME280;39763;51.188;6.690;2022-08-03T07:32:37;101214.38;;;26.69;49.44
53858;BME280;39763;51.188;6.690;2022-08-03T07:34:22;101218.19;;;26.67;49.68
53858;BME280;39763;51.188;6.690;2022-08-03T07:35:54;101215.78;;;26.64;50.00
53858;BME280;39763;51.188;6.690;2022-08-03T07:37:25;101216.91;;;26.61;50.28
53858;BME280;39763;51.188;6.690;2022-08-03T07:38:57;101218.03;;;26.59;50.04
53858;BME280;39763;51.188;6.690;2022-08-03T07:40:29;101207.25;;;26.59;50.28
53858;BME280;39763;51.188;6.690;2022-08-03T07:42:02;101219.19;;;26.66;50.03
53858;BME280;39763;51.188;6.690;2022-08-03T07:43:34;101213.63;;;26.77;49.86
53858;BME280;39763;51.188;6.690;2022-08-03T07:45:07;101219.47;;;26.82;49.67
53858;BME280;39763;51.188;6.690;2022-08-03T07:46:47;101219.84;;;26.87;49.92
53858;BME280;39763;51.188;6.690;2022-08-03T07:48:19;101213.03;;;26.93;49.61
53858;BME280;39763;51.188;6.690;2022-08-03T07:49:52;101208.66;;;27.01;49.21
53858;BME280;39763;51.188;6.690;2022-08-03T07:51:24;101213.03;;;27.12;49.00
53858;BME280;39763;51.188;6.690;2022-08-03T07:52:56;101213.28;;;27.19;49.06
53858;BME280;39763;51.188;6.690;2022-08-03T07:54:28;101211.59;;;27.27;49.19
53858;BME280;39763;51.188;6.690;2022-08-03T07:56:00;101215.38;;;27.34;49.11
53858;BME280;39763;51.188;6.690;2022-08-03T07:57:36;101212.94;;;27.41;48.55
53858;BME280;39763;51.188;6.690;2022-08-03T07:59:08;101208.13;;;27.45;48.30
53858;BME280;39763;51.188;6.690;2022-08-03T08:00:40;101203.25;;;27.48;48.10
53858;BME280;39763;51.188;6.690;2022-08-03T08:02:13;101205.38;;;27.54;48.50
53858;BME280;39763;51.188;6.690;2022-08-03T08:03:45;101209.38;;;27.60;48.31
53858;BME280;39763;51.188;6.690;2022-08-03T08:05:25;101202.91;;;27.70;48.06
53858;BME280;39763;51.188;6.690;2022-08-03T08:06:58;101205.53;;;27.80;48.09
53858;BME280;39763;51.188;6.690;2022-08-03T08:08:30;101201.09;;;27.89;47.98
53858;BME280;39763;51.188;6.690;2022-08-03T08:10:02;101198.34;;;27.98;47.48
53858;BME280;39763;51.188;6.690;2022-08-03T08:11:35;101198.75;;;28.03;47.50
53858;BME280;39763;51.188;6.690;2022-08-03T08:13:10;101202.38;;;28.12;47.23
53858;BME280;39763;51.188;6.690;2022-08-03T08:14:42;101198.22;;;28.18;47.34
53858;BME280;39763;51.188;6.690;2022-08-03T08:16:17;101196.06;;;28.21;46.35
53858;BME280;39763;51.188;6.690;2022-08-03T08:17:50;101200.03;;;28.27;46.77